Kvitbjoern — LM9158 — position and weather

sailwx.info

Track history (hours):
 
Tides and Currents Weather Stations Pressure Air Temp Water Temp Dewpoint Dewpoint Depression Visibility Wind Speed Wind Dir Waves Ship Positions

Kvitbjoern

Last reported at 2016-Apr-27 08:24 UTC. Time now 2016-Apr-29 21:43 UTC.
Position N 66°22' E 012°21'.

Length 10 m.

Type: Fishing. MMSI: 257454420.

Date/timePositionNaut miles runAvg speedWind from/ knotsBaromVisibWave heightAir tempDewpointWater temp
2016-Apr-27 08:24N 66°22' E 012°21'2 1.9
2016-Apr-27 07:31N 66°24' E 012°23'1 0.5
2016-Apr-27 06:31N 66°24' E 012°22'1 0.9
2016-Apr-27 05:33N 66°23' E 012°23'1 0.1
2016-Apr-26 16:24N 66°22' E 012°21'0 0.4
2016-Apr-26 15:26N 66°23' E 012°21'2 0.8
2016-Apr-26 13:25N 66°22' E 012°17'1 1.3
2016-Apr-26 12:28N 66°23' E 012°17'1 1.5
2016-Apr-26 11:33N 66°24' E 012°21'1 1.1
2016-Apr-26 10:28N 66°24' E 012°24'0 0.4
2016-Apr-26 09:28N 66°24' E 012°23'0 0.4
2016-Apr-26 08:33N 66°24' E 012°23'1 1.2
2016-Apr-26 07:29N 66°24' E 012°27'1 0.8
2016-Apr-26 06:14N 66°25' E 012°27'1 1.3
2016-Apr-26 05:33N 66°25' E 012°25'1 0.9
2016-Apr-26 04:28N 66°25' E 012°23'2 2.7
2016-Apr-26 03:32N 66°22' E 012°21'0 0.0
2016-Apr-25 16:13N 66°22' E 012°21'2 1.8
2016-Apr-25 15:11N 66°22' E 012°17'1 1.7
2016-Apr-25 14:33N 66°23' E 012°17'4 4.4
2016-Apr-25 13:32N 66°24' E 012°27'1 0.9
2016-Apr-25 12:33N 66°25' E 012°28'2 2.1
2016-Apr-25 11:33N 66°25' E 012°23'1 1.0
2016-Apr-25 10:33N 66°24' E 012°22'1 1.4
2016-Apr-25 09:32N 66°22' E 012°21'0 0.0
2016-Apr-25 08:32N 66°22' E 012°21'  
2016-Apr-20 10:23N 66°22' E 012°21'0 0.0
2016-Apr-20 09:29N 66°22' E 012°21'0 0.0
2016-Apr-20 08:29N 66°22' E 012°21'0 0.0
2016-Apr-20 07:29N 66°22' E 012°21'0 0.0
2016-Apr-20 06:31N 66°22' E 012°21'2 1.5
2016-Apr-20 05:29N 66°22' E 012°25'2 0.1
2016-Apr-19 12:29N 66°22' E 012°21'0 0.0
2016-Apr-19 11:33N 66°22' E 012°21'0 0.0
2016-Apr-19 10:33N 66°22' E 012°21'0 0.0
2016-Apr-19 09:33N 66°22' E 012°21'0 0.0
2016-Apr-19 08:21N 66°22' E 012°21'0 0.0
2016-Apr-19 07:33N 66°22' E 012°21'1 1.2
2016-Apr-19 06:32N 66°22' E 012°24'1 1.0
2016-Apr-19 05:28N 66°22' E 012°27'2 2.3
2016-Apr-19 04:33N 66°22' E 012°22'0 0.0
2016-Apr-18 18:29N 66°22' E 012°21'1 1.1
2016-Apr-18 17:28N 66°21' E 012°22'2 2.3
2016-Apr-18 16:33N 66°22' E 012°27'1 0.7
2016-Apr-18 15:33N 66°22' E 012°25'2 1.5
2016-Apr-18 14:33N 66°22' E 012°21'  
Track history (hours):
 
Tides and Currents Weather Stations Pressure Air Temp Water Temp Dewpoint Dewpoint Depression Visibility Wind Speed Wind Dir Waves Ship Positions

Kvitbjoern

Last reported at 2016-Apr-27 08:24 UTC. Time now 2016-Apr-29 21:43 UTC.
Position N 66°22' E 012°21'.

Length 10 m.

Type: Fishing. MMSI: 257454420.

Date/timePositionNaut miles runAvg speedWind from/ knotsBaromVisibWave heightAir tempDewpointWater temp
2016-Apr-27 08:24N 66°22' E 012°21'2 1.9
2016-Apr-27 07:31N 66°24' E 012°23'1 0.5
2016-Apr-27 06:31N 66°24' E 012°22'1 0.9
2016-Apr-27 05:33N 66°23' E 012°23'1 0.1
2016-Apr-26 16:24N 66°22' E 012°21'0 0.4
2016-Apr-26 15:26N 66°23' E 012°21'2 0.8
2016-Apr-26 13:25N 66°22' E 012°17'1 1.3
2016-Apr-26 12:28N 66°23' E 012°17'1 1.5
2016-Apr-26 11:33N 66°24' E 012°21'1 1.1
2016-Apr-26 10:28N 66°24' E 012°24'0 0.4
2016-Apr-26 09:28N 66°24' E 012°23'0 0.4
2016-Apr-26 08:33N 66°24' E 012°23'1 1.2
2016-Apr-26 07:29N 66°24' E 012°27'1 0.8
2016-Apr-26 06:14N 66°25' E 012°27'1 1.3
2016-Apr-26 05:33N 66°25' E 012°25'1 0.9
2016-Apr-26 04:28N 66°25' E 012°23'2 2.7
2016-Apr-26 03:32N 66°22' E 012°21'0 0.0
2016-Apr-25 16:13N 66°22' E 012°21'2 1.8
2016-Apr-25 15:11N 66°22' E 012°17'1 1.7
2016-Apr-25 14:33N 66°23' E 012°17'4 4.4
2016-Apr-25 13:32N 66°24' E 012°27'1 0.9
2016-Apr-25 12:33N 66°25' E 012°28'2 2.1
2016-Apr-25 11:33N 66°25' E 012°23'1 1.0
2016-Apr-25 10:33N 66°24' E 012°22'1 1.4
2016-Apr-25 09:32N 66°22' E 012°21'0 0.0
2016-Apr-25 08:32N 66°22' E 012°21'  
2016-Apr-20 10:23N 66°22' E 012°21'0 0.0
2016-Apr-20 09:29N 66°22' E 012°21'0 0.0
2016-Apr-20 08:29N 66°22' E 012°21'0 0.0
2016-Apr-20 07:29N 66°22' E 012°21'0 0.0
2016-Apr-20 06:31N 66°22' E 012°21'2 1.5
2016-Apr-20 05:29N 66°22' E 012°25'2 0.1
2016-Apr-19 12:29N 66°22' E 012°21'0 0.0
2016-Apr-19 11:33N 66°22' E 012°21'0 0.0
2016-Apr-19 10:33N 66°22' E 012°21'0 0.0
2016-Apr-19 09:33N 66°22' E 012°21'0 0.0
2016-Apr-19 08:21N 66°22' E 012°21'0 0.0
2016-Apr-19 07:33N 66°22' E 012°21'1 1.2
2016-Apr-19 06:32N 66°22' E 012°24'1 1.0
2016-Apr-19 05:28N 66°22' E 012°27'2 2.3
2016-Apr-19 04:33N 66°22' E 012°22'0 0.0
2016-Apr-18 18:29N 66°22' E 012°21'1 1.1
2016-Apr-18 17:28N 66°21' E 012°22'2 2.3
2016-Apr-18 16:33N 66°22' E 012°27'1 0.7
2016-Apr-18 15:33N 66°22' E 012°25'2 1.5
2016-Apr-18 14:33N 66°22' E 012°21'  

Dump ship's entire track history